Time;durP1;ratioP1;P1;durP2;ratioP2;P2;SDS_P1;SDS_P2;PMS_P1;PMS_P2;Temp;Humidity;BMP_temperature;BMP_pressure;BME280_temperature;BME280_humidity;BME280_pressure;Samples;Min_cycle;Max_cycle;Signal;HPM_P1;HPM_P2
2022/05/25 00:00:00;;;;;;;0.40;0.40;;;;;;;9.48;100.00;100162.00;4996553;28;20030;-76
2022/05/25 00:02:26;;;;;;;0.40;0.40;;;;;;;9.46;100.00;100162.16;5001116;28;20430;-76
2022/05/25 00:04:56;;;;;;;0.40;0.40;;;;;;;9.45;100.00;100151.63;4999138;28;20117;-76
2022/05/25 00:07:22;;;;;;;0.38;0.38;;;;;;;9.38;100.00;100131.91;4988117;28;20968;-75
2022/05/25 00:09:49;;;;;;;0.30;0.30;;;;;;;9.43;100.00;100143.75;5016963;28;20104;-77
2022/05/25 00:12:15;;;;;;;0.40;0.40;;;;;;;9.45;100.00;100149.78;5020962;28;20121;-77
2022/05/25 00:14:44;;;;;;;0.30;0.30;;;;;;;9.45;100.00;100144.41;5001602;28;20037;-77
2022/05/25 00:17:10;;;;;;;0.40;0.40;;;;;;;9.27;100.00;100105.53;5011591;28;20160;-76
2022/05/25 00:22:20;;;;;;;0.30;0.30;;;;;;;9.41;100.00;100123.50;5020557;28;20229;-76
2022/05/25 00:24:45;;;;;;;0.40;0.40;;;;;;;9.50;100.00;100138.50;5006934;28;20434;-76
2022/05/25 00:27:11;;;;;;;0.30;0.30;;;;;;;9.51;100.00;100137.47;5005112;28;20037;-79
2022/05/25 00:29:37;;;;;;;0.35;0.35;;;;;;;9.51;100.00;100125.91;4979078;28;20422;-77
2022/05/25 00:32:04;;;;;;;0.32;0.32;;;;;;;9.52;100.00;100109.59;5009276;28;20426;-77
2022/05/25 00:34:30;;;;;;;0.38;0.38;;;;;;;9.53;100.00;100103.25;5007307;28;20057;-76
2022/05/25 00:36:56;;;;;;;0.40;0.40;;;;;;;9.55;100.00;100106.59;4974669;28;20499;-79
2022/05/25 00:39:23;;;;;;;0.40;0.40;;;;;;;9.50;100.00;100087.50;5009846;28;20706;-76
2022/05/25 00:41:50;;;;;;;0.47;0.47;;;;;;;9.59;100.00;100097.13;5020810;28;20030;-77
2022/05/25 00:44:17;;;;;;;1.05;0.93;;;;;;;9.61;100.00;100092.41;5006602;28;20040;-76
2022/05/25 00:46:49;;;;;;;0.65;0.40;;;;;;;9.60;100.00;100089.91;5005624;28;20468;-77
2022/05/25 00:49:25;;;;;;;1.10;0.50;;;;;;;9.61;100.00;100100.47;5020093;28;20038;-78
2022/05/25 00:51:54;;;;;;;3.53;0.60;;;;;;;9.59;100.00;100093.63;5003714;28;20943;-77
2022/05/25 00:54:24;;;;;;;0.40;0.40;;;;;;;9.60;100.00;100098.78;5000571;28;20045;-77
2022/05/25 00:56:51;;;;;;;0.40;0.40;;;;;;;9.61;100.00;100086.22;5008528;28;20708;-76
2022/05/25 00:59:26;;;;;;;0.60;0.60;;;;;;;9.60;100.00;100088.03;5002264;28;20121;-77
2022/05/25 01:01:55;;;;;;;0.40;0.40;;;;;;;9.57;100.00;100083.06;4987090;28;20116;-77
2022/05/25 01:04:21;;;;;;;0.50;0.50;;;;;;;9.56;100.00;100078.72;5006983;28;20029;-78
2022/05/25 01:07:08;;;;;;;1.30;1.27;;;;;;;9.47;100.00;100069.06;4990741;28;20079;-78
2022/05/25 01:10:09;;;;;;;0.50;0.50;;;;;;;9.46;100.00;100070.09;5001918;28;20033;-78
2022/05/25 01:13:00;;;;;;;0.43;0.43;;;;;;;9.44;100.00;100072.13;4983341;28;20543;-77
2022/05/25 01:15:43;;;;;;;0.50;0.50;;;;;;;9.43;100.00;100075.84;5005569;28;20068;-77
2022/05/25 01:18:17;;;;;;;0.57;0.57;;;;;;;9.40;100.00;100063.63;5008776;28;20059;-78
2022/05/25 01:20:49;;;;;;;0.40;0.40;;;;;;;9.43;100.00;100057.06;5004133;28;20034;-77
2022/05/25 01:23:37;;;;;;;5.35;1.52;;;;;;;9.43;100.00;100057.06;4994870;28;20069;-78
2022/05/25 01:26:40;;;;;;;0.60;0.60;;;;;;;9.44;100.00;100059.53;4985779;28;20029;-78
2022/05/25 01:29:35;;;;;;;2.03;0.90;;;;;;;9.46;100.00;100046.78;4987583;28;20908;-78
2022/05/25 01:32:15;;;;;;;0.55;0.55;;;;;;;9.49;100.00;100045.56;4984395;28;20037;-77
2022/05/25 01:34:51;;;;;;;0.52;0.52;;;;;;;9.52;100.00;100045.19;5019538;28;20057;-77
2022/05/25 01:37:17;;;;;;;1.02;0.95;;;;;;;9.54;100.00;100036.97;4993257;28;20087;-78
2022/05/25 01:39:53;;;;;;;0.47;0.47;;;;;;;9.56;100.00;100033.09;5004065;28;20026;-76
2022/05/25 01:42:21;;;;;;;0.60;0.60;;;;;;;9.59;100.00;100046.13;5007728;28;20065;-77
2022/05/25 01:44:52;;;;;;;1.50;0.88;;;;;;;9.61;100.00;100036.03;4971487;28;20158;-78
2022/05/25 01:47:20;;;;;;;0.88;0.70;;;;;;;9.59;100.00;100030.03;4989409;28;20128;-77
2022/05/25 01:50:22;;;;;;;0.50;0.50;;;;;;;9.71;100.00;100043.78;5001026;28;20107;-78
2022/05/25 01:52:57;;;;;;;1.10;0.95;;;;;;;9.75;100.00;100037.03;4986405;28;20400;-77
2022/05/25 01:55:30;;;;;;;1.23;1.13;;;;;;;9.80;100.00;100031.09;5002551;28;20380;-78
2022/05/25 01:58:10;;;;;;;1.48;0.93;;;;;;;9.84;100.00;100016.25;4997884;28;20466;-77
2022/05/25 02:00:40;;;;;;;0.50;0.50;;;;;;;9.85;100.00;100016.09;4997241;28;20047;-78
2022/05/25 02:06:10;;;;;;;0.40;0.40;;;;;;;9.99;100.00;100022.44;5005519;28;20030;-77
2022/05/25 02:09:14;;;;;;;1.88;0.63;;;;;;;10.03;100.00;100004.94;5014044;28;20272;-76
2022/05/25 02:11:45;;;;;;;0.40;0.40;;;;;;;10.10;100.00;100005.81;4968023;28;20042;-77
2022/05/25 02:14:30;;;;;;;0.50;0.50;;;;;;;10.17;100.00;99997.00;5020530;28;20041;-77
2022/05/25 02:17:06;;;;;;;0.57;0.57;;;;;;;10.13;100.00;100000.09;5005600;28;20034;-77
2022/05/25 02:20:00;;;;;;;0.50;0.50;;;;;;;10.25;100.00;100007.63;5004063;28;20092;-76
2022/05/25 02:22:46;;;;;;;0.40;0.40;;;;;;;10.32;100.00;100001.31;4983822;28;20034;-77
2022/05/25 02:25:37;;;;;;;0.98;0.55;;;;;;;10.37;100.00;100006.09;4976218;28;20026;-77
2022/05/25 02:28:24;;;;;;;0.30;0.30;;;;;;;10.46;100.00;100004.13;4996366;28;20121;-77
2022/05/25 02:30:52;;;;;;;1.30;0.65;;;;;;;10.50;100.00;100005.38;4980881;28;20032;-77
2022/05/25 02:33:24;;;;;;;0.30;0.30;;;;;;;10.54;100.00;99996.75;4986025;28;20085;-77
2022/05/25 02:35:50;;;;;;;0.40;0.40;;;;;;;10.57;100.00;99993.66;5006942;28;20036;-78
2022/05/25 02:38:17;;;;;;;0.40;0.40;;;;;;;10.63;100.00;99994.75;4990118;28;20160;-78
2022/05/25 02:40:43;;;;;;;0.50;0.40;;;;;;;10.60;100.00;99980.88;5009358;28;20101;-77
2022/05/25 02:43:09;;;;;;;0.50;0.50;;;;;;;10.64;100.00;99984.81;5005250;28;20109;-78
2022/05/25 02:45:36;;;;;;;0.40;0.40;;;;;;;10.75;100.00;99995.06;4971608;28;20448;-79
2022/05/25 02:48:03;;;;;;;0.40;0.40;;;;;;;10.77;100.00;99987.63;4986270;28;20038;-78
2022/05/25 02:50:28;;;;;;;0.30;0.30;;;;;;;10.80;100.00;99984.53;5005630;28;20121;-77
2022/05/25 02:52:56;;;;;;;0.40;0.40;;;;;;;10.80;100.00;99989.91;5004553;28;20032;-78
2022/05/25 02:55:22;;;;;;;0.40;0.40;;;;;;;10.84;100.00;99984.97;4988544;28;20029;-78
2022/05/25 02:57:51;;;;;;;0.30;0.30;;;;;;;10.83;100.00;99976.09;5003412;28;20026;-79
2022/05/25 03:00:17;;;;;;;0.40;0.40;;;;;;;10.87;100.00;99977.31;5001608;28;20096;-77
2022/05/25 03:02:43;;;;;;;0.40;0.40;;;;;;;10.87;100.00;99974.63;4982852;28;20498;-77
2022/05/25 03:05:10;;;;;;;0.50;0.50;;;;;;;10.84;100.00;99969.66;4985714;28;20385;-78
2022/05/25 03:07:36;;;;;;;0.30;0.30;;;;;;;10.91;100.00;99986.69;5001914;28;20125;-78
2022/05/25 03:10:04;;;;;;;0.40;0.40;;;;;;;10.94;100.00;99986.28;5000746;28;20083;-77
2022/05/25 03:12:29;;;;;;;0.40;0.40;;;;;;;10.94;100.00;99985.47;5007535;28;20041;-78
2022/05/25 03:14:55;;;;;;;2.38;0.60;;;;;;;10.94;100.00;99980.91;4990321;28;20372;-80
2022/05/25 03:17:20;;;;;;;0.30;0.30;;;;;;;10.99;100.00;99991.06;5006453;28;20028;-78
2022/05/25 03:19:52;;;;;;;0.30;0.30;;;;;;;10.98;100.00;99987.56;4999171;28;20091;-79
2022/05/25 03:22:17;;;;;;;1.30;0.65;;;;;;;11.00;100.00;99990.88;5002291;28;20125;-78
2022/05/25 03:24:43;;;;;;;0.80;0.80;;;;;;;11.03;100.00;99988.81;5023667;28;20077;-77
2022/05/25 03:27:09;;;;;;;0.50;0.50;;;;;;;11.04;100.00;99998.56;4997664;28;20045;-79
2022/05/25 03:29:34;;;;;;;0.40;0.40;;;;;;;10.97;100.00;99982.38;5008250;28;20474;-76
2022/05/25 03:32:00;;;;;;;1.33;0.50;;;;;;;11.06;100.00;99978.50;4989017;28;20046;-77
2022/05/25 03:34:26;;;;;;;0.40;0.40;;;;;;;11.07;100.00;100006.22;5005922;28;20103;-76
2022/05/25 03:36:54;;;;;;;0.50;0.50;;;;;;;11.06;100.00;100000.03;5006885;28;20376;-77
2022/05/25 03:39:22;;;;;;;2.92;1.05;;;;;;;11.06;100.00;100007.25;5007529;28;20030;-77
2022/05/25 03:41:52;;;;;;;0.65;0.50;;;;;;;11.05;100.00;100017.19;5006406;28;20036;-78
2022/05/25 03:44:19;;;;;;;1.45;0.80;;;;;;;10.98;100.00;100010.91;5022308;28;20061;-78
2022/05/25 03:46:45;;;;;;;0.50;0.50;;;;;;;10.92;100.00;100015.22;4992274;28;20041;-78
2022/05/25 03:49:10;;;;;;;1.05;0.50;;;;;;;10.83;100.00;100005.66;5022633;28;20065;-79
2022/05/25 03:51:36;;;;;;;0.40;0.40;;;;;;;10.78;100.00;100014.31;5009848;28;20033;-78
2022/05/25 03:54:04;;;;;;;0.40;0.40;;;;;;;10.76;100.00;100012.84;5022796;28;20040;-78
2022/05/25 03:56:30;;;;;;;0.40;0.40;;;;;;;10.71;100.00;100007.22;4967230;28;20025;-78
2022/05/25 03:58:56;;;;;;;0.30;0.30;;;;;;;10.66;100.00;100004.28;4983219;28;20132;-78
2022/05/25 04:01:21;;;;;;;0.73;0.57;;;;;;;10.63;100.00;100005.50;4998259;28;20486;-79
2022/05/25 04:03:47;;;;;;;0.50;0.50;;;;;;;10.59;100.00;100014.16;5015386;28;20128;-80
2022/05/25 04:06:16;;;;;;;4.95;1.10;;;;;;;10.53;100.00;100005.84;5002069;28;20030;-77
2022/05/25 04:08:44;;;;;;;3.42;0.95;;;;;;;10.51;100.00;100015.97;5007086;28;20040;-77
2022/05/25 04:11:11;;;;;;;1.75;0.80;;;;;;;10.42;100.00;100006.34;4973770;28;20049;-78
2022/05/25 04:13:36;;;;;;;0.60;0.60;;;;;;;10.45;100.00;100014.06;4991456;28;20034;-78
2022/05/25 04:16:02;;;;;;;0.60;0.60;;;;;;;10.40;100.00;100019.16;5005262;28;20052;-78
2022/05/25 04:18:28;;;;;;;0.63;0.50;;;;;;;10.37;100.00;100018.72;5007834;28;20383;-77
2022/05/25 04:20:54;;;;;;;0.50;0.50;;;;;;;10.37;100.00;100026.78;4987463;28;20475;-77
2022/05/25 04:23:20;;;;;;;0.40;0.40;;;;;;;10.35;100.00;100029.66;4985931;28;20041;-78
2022/05/25 04:25:46;;;;;;;0.40;0.40;;;;;;;10.36;100.00;100025.94;4986196;28;20041;-77
2022/05/25 04:28:12;;;;;;;0.30;0.30;;;;;;;10.31;100.00;100020.31;5003911;28;20061;-80
2022/05/25 04:30:37;;;;;;;0.30;0.30;;;;;;;10.31;100.00;100023.00;5018938;28;20042;-78
2022/05/25 04:33:03;;;;;;;0.75;0.47;;;;;;;10.29;100.00;100017.84;5019650;28;20026;-78
2022/05/25 04:35:29;;;;;;;1.08;0.50;;;;;;;10.40;100.00;100031.75;5007762;28;20041;-78
2022/05/25 04:37:55;;;;;;;0.30;0.30;;;;;;;10.42;100.00;100038.59;5005790;28;20038;-78
2022/05/25 04:40:33;;;;;;;0.30;0.30;;;;;;;10.47;100.00;100036.16;5009000;28;20030;-78
2022/05/25 04:43:03;;;;;;;0.47;0.47;;;;;;;10.41;100.00;100030.75;4987267;28;20357;-79
2022/05/25 04:45:29;;;;;;;1.80;0.60;;;;;;;10.52;100.00;100040.97;5006289;28;20060;-77
2022/05/25 04:47:56;;;;;;;0.30;0.30;;;;;;;10.54;100.00;100049.69;4968884;28;20037;-80
2022/05/25 04:50:22;;;;;;;6.57;1.25;;;;;;;10.54;100.00;100047.00;5008894;28;20678;-76
2022/05/25 04:52:48;;;;;;;0.40;0.40;;;;;;;10.54;100.00;100055.88;5000538;28;20092;-79
2022/05/25 04:57:59;;;;;;;3.42;1.95;;;;;;;10.55;100.00;100070.97;5005439;28;20029;-77
2022/05/25 05:00:26;;;;;;;0.30;0.30;;;;;;;10.44;100.00;100049.16;5004336;28;20057;-77
2022/05/25 05:02:52;;;;;;;0.40;0.40;;;;;;;10.51;100.00;100067.03;5013557;28;20038;-78
2022/05/25 05:05:18;;;;;;;0.50;0.50;;;;;;;10.51;100.00;100072.41;4989397;28;20384;-78
2022/05/25 05:07:44;;;;;;;0.40;0.40;;;;;;;10.45;100.00;100073.19;4987524;28;20780;-79
2022/05/25 05:10:10;;;;;;;0.40;0.40;;;;;;;10.51;100.00;100077.78;5002794;28;20037;-79
2022/05/25 05:12:36;;;;;;;0.73;0.73;;;;;;;10.55;100.00;100080.91;5004724;28;20072;-77
2022/05/25 05:15:02;;;;;;;0.40;0.40;;;;;;;10.55;100.00;100088.97;4993124;28;20031;-78
2022/05/25 05:17:28;;;;;;;0.45;0.45;;;;;;;10.54;100.00;100087.31;5017438;28;20130;-77
2022/05/25 05:19:56;;;;;;;0.40;0.40;;;;;;;10.50;100.00;100088.72;4986626;28;20119;-79
2022/05/25 05:22:22;;;;;;;2.05;0.60;;;;;;;10.49;100.00;100084.38;5002486;28;20041;-79
2022/05/25 05:24:47;;;;;;;0.40;0.40;;;;;;;10.44;100.00;100103.75;4996846;28;20041;-79
2022/05/25 05:27:13;;;;;;;1.27;0.50;;;;;;;10.41;100.00;100103.31;4994115;28;20043;-78
2022/05/25 05:29:41;;;;;;;0.40;0.40;;;;;;;10.43;100.00;100103.97;4989772;28;20026;-77
2022/05/25 05:32:10;;;;;;;6.13;0.73;;;;;;;10.44;100.00;100103.75;4985854;28;20442;-77
2022/05/25 05:34:37;;;;;;;0.60;0.60;;;;;;;10.48;100.00;100105.03;5001570;28;20029;-77
2022/05/25 05:37:06;;;;;;;3.83;0.70;;;;;;;10.53;100.00;100108.00;5003864;28;20112;-77
2022/05/25 05:39:34;;;;;;;0.40;0.40;;;;;;;10.56;100.00;100106.78;4990741;28;20076;-77
2022/05/25 05:42:05;;;;;;;0.40;0.40;;;;;;;10.66;100.00;100117.19;5004906;28;20551;-81
2022/05/25 05:44:38;;;;;;;1.65;0.60;;;;;;;10.69;100.00;100125.72;4988116;28;20395;-79
2022/05/25 05:47:07;;;;;;;0.40;0.40;;;;;;;10.66;100.00;100127.94;5000316;28;20033;-77
2022/05/25 05:49:35;;;;;;;1.17;0.57;;;;;;;10.78;100.00;100127.25;5007528;28;20072;-77
2022/05/25 05:52:01;;;;;;;0.45;0.45;;;;;;;10.88;100.00;100121.56;4987459;28;20036;-79
2022/05/25 05:54:27;;;;;;;0.65;0.65;;;;;;;10.95;100.00;100130.50;5023690;28;20038;-78
2022/05/25 05:56:53;;;;;;;1.20;0.73;;;;;;;11.11;100.00;100121.31;5015525;28;20467;-79
2022/05/25 05:59:18;;;;;;;0.40;0.40;;;;;;;11.27;100.00;100125.56;4991784;28;20037;-77
2022/05/25 06:01:45;;;;;;;0.40;0.40;;;;;;;11.32;100.00;100139.28;5019537;28;20018;-78
2022/05/25 06:04:11;;;;;;;0.40;0.40;;;;;;;11.27;100.00;100144.41;5002076;28;20048;-78
2022/05/25 06:06:37;;;;;;;0.40;0.40;;;;;;;11.22;100.00;100154.97;4980274;28;20065;-79
2022/05/25 06:09:03;;;;;;;0.40;0.40;;;;;;;11.13;100.00;100151.56;5006773;28;20073;-79
2022/05/25 06:11:29;;;;;;;0.40;0.40;;;;;;;11.23;100.00;100162.81;4994342;28;20041;-78
2022/05/25 06:13:55;;;;;;;0.73;0.63;;;;;;;11.19;100.00;100160.72;5001161;28;20049;-78
2022/05/25 06:19:25;;;;;;;0.40;0.40;;;;;;;11.31;100.00;100161.03;5008714;28;20046;-77
2022/05/25 06:22:02;;;;;;;0.45;0.45;;;;;;;11.37;100.00;100163.75;4999378;28;20036;-77
2022/05/25 06:24:29;;;;;;;3.72;0.80;;;;;;;11.54;100.00;100175.06;5012379;28;20066;-78
2022/05/25 06:26:55;;;;;;;1.42;0.98;;;;;;;11.64;100.00;100174.72;5004706;28;20032;-77
2022/05/25 06:29:21;;;;;;;0.57;0.50;;;;;;;11.83;100.00;100181.28;5005970;28;20018;-77
2022/05/25 06:31:47;;;;;;;0.40;0.40;;;;;;;11.87;100.00;100175.31;5021985;28;20029;-79
2022/05/25 06:34:13;;;;;;;0.40;0.40;;;;;;;11.88;100.00;100176.13;5003042;28;20034;-77
2022/05/25 06:36:38;;;;;;;0.47;0.47;;;;;;;11.90;100.00;100182.16;5005835;28;20022;-75
2022/05/25 06:39:04;;;;;;;1.23;0.93;;;;;;;11.94;100.00;100183.44;4988291;28;20042;-77
2022/05/25 06:41:30;;;;;;;0.40;0.40;;;;;;;12.02;100.00;100187.84;5005369;28;20431;-78
2022/05/25 06:43:56;;;;;;;0.40;0.40;;;;;;;12.18;100.00;100187.50;4987949;28;20017;-78
2022/05/25 06:46:22;;;;;;;17.45;3.08;;;;;;;12.31;100.00;100190.25;5021216;28;20471;-78
2022/05/25 06:48:49;;;;;;;0.40;0.40;;;;;;;12.37;100.00;100187.78;5002938;28;20123;-78
2022/05/25 06:51:20;;;;;;;0.50;0.50;;;;;;;12.25;100.00;100185.66;5017284;28;20033;-77
2022/05/25 06:53:47;;;;;;;0.43;0.43;;;;;;;12.22;100.00;100198.69;4993823;28;20026;-77
2022/05/25 06:56:13;;;;;;;0.40;0.40;;;;;;;12.21;100.00;100203.25;4994021;28;21786;-77
2022/05/25 06:58:39;;;;;;;1.95;0.80;;;;;;;12.45;100.00;100209.16;5000398;28;20042;-78
2022/05/25 07:01:04;;;;;;;0.40;0.40;;;;;;;12.66;100.00;100206.34;4996275;28;20029;-78
2022/05/25 07:03:33;;;;;;;0.50;0.50;;;;;;;12.69;100.00;100219.41;5000573;28;20026;-79
2022/05/25 07:06:03;;;;;;;0.40;0.40;;;;;;;12.63;100.00;100222.09;4999931;28;20080;-79
2022/05/25 07:08:28;;;;;;;0.40;0.40;;;;;;;12.63;100.00;100214.00;4999761;28;20116;-79
2022/05/25 07:10:54;;;;;;;0.60;0.60;;;;;;;12.85;100.00;100212.00;5003858;28;20124;-82
2022/05/25 07:13:30;;;;;;;0.50;0.50;;;;;;;13.06;100.00;100216.41;4986747;28;20042;-83
2022/05/25 07:16:04;;;;;;;2.10;0.70;;;;;;;12.90;100.00;100225.69;4997608;28;20029;-80
2022/05/25 07:18:30;;;;;;;0.40;0.40;;;;;;;12.65;100.00;100238.91;5003845;28;20060;-78
2022/05/25 07:21:01;;;;;;;0.30;0.30;;;;;;;12.38;100.00;100236.09;4982800;28;20472;-79
2022/05/25 07:23:27;;;;;;;0.40;0.40;;;;;;;12.13;100.00;100249.25;5001038;28;20038;-78
2022/05/25 07:25:53;;;;;;;2.15;0.40;;;;;;;11.99;100.00;100244.81;5004952;28;20498;-78
2022/05/25 07:28:18;;;;;;;9.40;2.65;;;;;;;11.85;100.00;100260.84;5011067;28;20176;-77
2022/05/25 07:30:46;;;;;;;2.30;0.60;;;;;;;11.77;100.00;100266.38;4995693;28;20026;-78
2022/05/25 07:33:11;;;;;;;0.30;0.30;;;;;;;11.68;100.00;100270.25;5018785;28;20104;-76
2022/05/25 07:35:37;;;;;;;0.50;0.50;;;;;;;11.73;100.00;100272.38;4979481;28;20408;-78
2022/05/25 07:38:03;;;;;;;0.95;0.50;;;;;;;11.84;100.00;100275.34;4986775;28;20031;-77
2022/05/25 07:40:32;;;;;;;1.50;0.50;;;;;;;11.98;100.00;100273.59;4985674;28;20045;-78
2022/05/25 07:43:00;;;;;;;0.40;0.40;;;;;;;12.47;100.00;100271.81;4985632;28;20033;-78
2022/05/25 07:45:27;;;;;;;0.40;0.40;;;;;;;13.38;100.00;100271.50;5017200;28;20038;-77
2022/05/25 07:47:54;;;;;;;0.50;0.50;;;;;;;13.82;100.00;100270.06;4983036;28;20058;-78
2022/05/25 07:50:21;;;;;;;0.40;0.40;;;;;;;13.85;100.00;100275.03;4978741;28;20038;-78
2022/05/25 07:52:47;;;;;;;0.40;0.40;;;;;;;14.22;100.00;100283.53;5002581;28;20061;-77
2022/05/25 07:55:13;;;;;;;0.65;0.65;;;;;;;16.45;95.37;100285.22;5002706;28;20029;-78
2022/05/25 07:57:44;;;;;;;2.08;0.40;;;;;;;15.46;97.85;100285.06;5007374;28;20124;-79
2022/05/25 08:00:20;;;;;;;0.30;0.30;;;;;;;14.24;100.00;100290.38;4997546;28;20049;-81
2022/05/25 08:05:49;;;;;;;1.23;0.95;;;;;;;13.96;100.00;100297.91;4984515;28;20026;-80
2022/05/25 08:08:21;;;;;;;0.40;0.40;;;;;;;14.01;100.00;100317.84;4986464;28;20033;-77
2022/05/25 08:11:08;;;;;;;0.40;0.40;;;;;;;14.07;100.00;100318.88;5000991;28;20038;-78
2022/05/25 08:13:35;;;;;;;0.40;0.40;;;;;;;14.50;100.00;100326.50;4987118;28;20018;-80
2022/05/25 08:16:02;;;;;;;0.47;0.47;;;;;;;14.71;100.00;100320.88;5003802;28;20022;-76
2022/05/25 08:18:28;;;;;;;0.60;0.60;;;;;;;14.85;100.00;100334.34;4967385;28;20038;-78
2022/05/25 08:20:53;;;;;;;0.40;0.40;;;;;;;14.46;100.00;100353.16;5014839;28;20364;-78
2022/05/25 08:23:20;;;;;;;0.60;0.60;;;;;;;13.83;100.00;100347.38;4986360;28;20038;-79
2022/05/25 08:25:46;;;;;;;0.40;0.40;;;;;;;13.49;100.00;100360.00;5019146;28;20387;-77
2022/05/25 08:28:12;;;;;;;0.50;0.50;;;;;;;13.38;100.00;100357.91;5007488;28;20103;-78
2022/05/25 08:30:41;;;;;;;0.50;0.50;;;;;;;13.54;100.00;100360.22;4997882;28;20356;-78
2022/05/25 08:33:07;;;;;;;2.78;0.90;;;;;;;14.25;100.00;100356.09;4990736;28;20026;-77
2022/05/25 08:35:33;;;;;;;0.90;0.90;;;;;;;17.14;89.91;100356.47;5022760;28;20042;-79
2022/05/25 08:37:59;;;;;;;0.45;0.45;;;;;;;17.55;86.91;100354.88;4994624;28;20040;-77
2022/05/25 08:40:26;;;;;;;0.75;0.50;;;;;;;16.54;91.02;100343.56;4988772;28;20048;-77
2022/05/25 08:42:52;;;;;;;0.45;0.45;;;;;;;16.55;89.22;100369.66;5007492;28;20495;-78
2022/05/25 08:45:19;;;;;;;0.82;0.82;;;;;;;18.09;83.13;100365.75;4999975;28;20039;-82
2022/05/25 08:47:51;;;;;;;0.60;0.60;;;;;;;19.95;75.77;100375.63;5025060;28;20029;-80
2022/05/25 08:50:17;;;;;;;0.83;0.83;;;;;;;19.98;75.17;100372.44;5020147;28;20045;-82
2022/05/25 08:52:43;;;;;;;1.27;0.57;;;;;;;20.63;71.42;100374.53;4994878;28;20036;-80
2022/05/25 08:55:11;;;;;;;3.13;0.80;;;;;;;21.61;68.79;100367.53;5005068;28;20084;-80
2022/05/25 08:57:40;;;;;;;0.40;0.40;;;;;;;18.96;78.11;100381.38;5008747;28;20105;-80
2022/05/25 09:00:09;;;;;;;0.40;0.40;;;;;;;17.40;83.89;100374.31;4987177;28;20030;-82
2022/05/25 09:02:46;;;;;;;0.40;0.40;;;;;;;16.76;87.83;100383.84;5006204;28;20092;-82
2022/05/25 09:05:21;;;;;;;3.60;0.57;;;;;;;17.05;87.11;100372.25;4992242;28;20041;-82
2022/05/25 09:08:08;;;;;;;1.58;0.98;;;;;;;18.52;79.58;100373.56;5014276;28;20046;-80
2022/05/25 09:10:43;;;;;;;0.73;0.73;;;;;;;20.99;72.32;100377.75;5002020;28;20037;-81
2022/05/25 09:13:16;;;;;;;0.50;0.50;;;;;;;20.90;71.73;100392.91;5040674;28;20068;-81
2022/05/25 09:18:34;;;;;;;2.22;2.03;;;;;;;19.25;74.61;100407.59;5029620;28;20072;-81
2022/05/25 09:21:03;;;;;;;1.33;0.73;;;;;;;21.17;67.85;100403.09;5001657;28;20030;-78
2022/05/25 09:23:29;;;;;;;3.80;1.67;;;;;;;21.52;65.99;100403.56;5005163;28;20034;-79
2022/05/25 09:26:00;;;;;;;4.72;1.17;;;;;;;21.74;66.47;100402.69;5020663;28;20137;-78
2022/05/25 09:28:34;;;;;;;3.97;1.00;;;;;;;20.37;69.15;100414.25;5018954;28;20133;-78
2022/05/25 09:31:02;;;;;;;9.32;1.20;;;;;;;19.37;70.41;100421.19;5003179;28;20050;-79
2022/05/25 09:33:40;;;;;;;6.40;1.80;;;;;;;19.43;71.13;100431.13;5020061;28;20026;-79
2022/05/25 09:36:12;;;;;;;5.60;0.90;;;;;;;18.85;71.99;100413.84;5002934;28;20347;-80
2022/05/25 09:39:04;;;;;;;4.65;1.05;;;;;;;18.93;71.44;100422.72;4984922;28;20054;-80
2022/05/25 09:41:31;;;;;;;4.93;1.20;;;;;;;18.52;75.99;100416.31;5002417;28;20049;-78
2022/05/25 09:43:59;;;;;;;2.70;1.38;;;;;;;19.73;70.05;100425.44;5001554;28;20093;-82
2022/05/25 09:46:59;;;;;;;4.25;1.08;;;;;;;19.74;69.48;100429.00;5006960;28;20029;-80
2022/05/25 09:49:47;;;;;;;6.80;1.20;;;;;;;20.52;68.84;100427.34;4955492;28;20048;-83
2022/05/25 09:52:21;;;;;;;4.10;1.52;;;;;;;20.82;66.10;100450.75;4994493;28;20030;-84
2022/05/25 09:55:10;;;;;;;3.35;1.33;;;;;;;21.59;57.99;100449.03;5009688;28;20479;-85
2022/05/25 09:57:40;;;;;;;2.78;1.33;;;;;;;22.31;61.25;100445.13;5004389;28;20477;-81
2022/05/25 10:00:21;;;;;;;6.07;1.30;;;;;;;23.53;55.49;100445.03;4995597;28;20022;-85
2022/05/25 10:02:47;;;;;;;5.47;1.27;;;;;;;24.29;52.52;100446.25;4996834;28;20022;-83
2022/05/25 10:05:25;;;;;;;6.05;1.40;;;;;;;24.93;48.91;100442.91;5021440;28;20014;-82
2022/05/25 10:07:56;;;;;;;5.10;1.50;;;;;;;24.48;48.53;100452.88;5011477;28;20080;-82
2022/05/25 10:11:11;;;;;;;3.97;0.93;;;;;;;23.96;53.29;100453.91;5003910;28;20026;-78
2022/05/25 10:13:40;;;;;;;8.10;1.30;;;;;;;21.49;55.61;100453.31;4988240;28;20044;-81
2022/05/25 10:16:28;;;;;;;6.63;1.27;;;;;;;19.18;63.93;100499.56;4994581;28;20041;-81
2022/05/25 10:18:55;;;;;;;5.28;1.02;;;;;;;16.90;74.83;100494.00;5008299;28;20033;-80
2022/05/25 10:21:32;;;;;;;2.30;1.23;;;;;;;15.93;79.90;100499.75;5010434;28;20085;-79
2022/05/25 10:23:59;;;;;;;2.45;0.80;;;;;;;16.29;81.25;100500.97;5026389;28;20496;-78
2022/05/25 10:26:34;;;;;;;2.58;1.10;;;;;;;16.58;79.43;100496.78;5002860;28;20030;-78
2022/05/25 10:29:08;;;;;;;5.70;1.23;;;;;;;19.98;69.46;100506.16;4997575;28;20033;-85
2022/05/25 10:37:36;;;;;;;3.45;1.30;;;;;;;21.83;58.23;100502.41;5009864;28;20026;-81
2022/05/25 10:40:06;;;;;;;9.30;1.42;;;;;;;21.93;57.06;100507.16;5019032;28;20104;-74
2022/05/25 10:42:39;;;;;;;4.75;1.00;;;;;;;22.53;55.08;100511.59;4980232;28;20049;-74
2022/05/25 10:45:09;;;;;;;5.30;1.38;;;;;;;22.54;50.26;100515.97;5007095;28;20033;-75
2022/05/25 10:47:34;;;;;;;3.25;1.55;;;;;;;21.49;54.62;100508.03;4999576;28;20060;-74
2022/05/25 10:50:09;;;;;;;4.05;1.30;;;;;;;22.66;51.11;100515.00;5001736;28;20065;-77
2022/05/25 10:52:37;;;;;;;3.30;1.30;;;;;;;22.86;45.90;100533.47;5016494;28;20026;-77
2022/05/25 10:55:05;;;;;;;5.45;1.08;;;;;;;21.45;48.54;100536.94;5005668;28;20018;-76
2022/05/25 10:57:57;;;;;;;6.40;1.40;;;;;;;22.07;47.17;100548.63;5026159;28;20064;-76
2022/05/25 11:00:44;;;;;;;4.72;1.10;;;;;;;22.48;44.48;100519.75;5006631;28;20038;-76
2022/05/25 11:03:38;;;;;;;8.77;2.45;;;;;;;23.03;43.81;100540.50;5002390;28;20037;-76
2022/05/25 11:06:41;;;;;;;3.78;1.33;;;;;;;24.25;40.30;100535.81;4992874;28;20108;-76
2022/05/25 11:09:12;;;;;;;5.65;1.20;;;;;;;22.48;43.30;100554.56;4993798;28;20089;-75
2022/05/25 11:12:00;;;;;;;7.60;1.13;;;;;;;20.98;47.22;100559.22;5002853;28;20035;-75
2022/05/25 11:14:36;;;;;;;4.32;0.90;;;;;;;19.72;52.58;100573.84;5009519;28;20036;-74
2022/05/25 11:17:27;;;;;;;5.45;1.27;;;;;;;18.60;54.31;100579.34;5010391;28;20583;-74
2022/05/25 11:20:08;;;;;;;11.13;1.25;;;;;;;17.76;57.97;100565.63;5014835;28;20026;-74
2022/05/25 11:22:52;;;;;;;5.05;1.38;;;;;;;17.09;57.79;100588.06;5021375;28;20104;-74
2022/05/25 11:25:53;;;;;;;4.75;0.98;;;;;;;17.29;57.72;100600.63;5007505;28;20062;-75
2022/05/25 11:28:43;;;;;;;2.45;0.98;;;;;;;18.82;52.84;100598.72;5000741;28;20092;-76
2022/05/25 11:31:36;;;;;;;4.90;1.25;;;;;;;19.20;50.87;100590.09;5015474;28;20038;-75
2022/05/25 11:34:20;;;;;;;7.18;1.17;;;;;;;19.62;51.15;100609.03;5010002;28;20030;-75
2022/05/25 11:37:21;;;;;;;2.22;1.40;;;;;;;21.68;44.54;100603.47;4989569;28;20124;-74
2022/05/25 11:39:57;;;;;;;9.23;1.52;;;;;;;23.31;41.04;100595.25;4896664;29;20119;-74
2022/05/25 11:42:39;;;;;;;4.28;1.30;;;;;;;23.84;39.49;100615.34;5001999;28;20281;-74
2022/05/25 11:45:26;;;;;;;3.75;1.10;;;;;;;24.53;37.27;100570.22;5017546;28;20022;-74
2022/05/25 11:48:12;;;;;;;2.72;0.90;;;;;;;23.67;40.02;100610.03;5015150;28;20030;-74
2022/05/25 11:50:54;;;;;;;3.50;1.05;;;;;;;23.86;38.56;100604.91;5010879;28;20032;-74
2022/05/25 11:53:31;;;;;;;5.45;1.13;;;;;;;22.06;44.00;100612.69;4992603;28;20050;-74
2022/05/25 11:56:10;;;;;;;12.07;1.73;;;;;;;20.97;46.24;100616.88;5009147;28;20263;-74
2022/05/25 11:58:48;;;;;;;2.25;1.13;;;;;;;21.95;44.64;100625.44;4992683;28;20034;-75
2022/05/25 12:01:19;;;;;;;5.30;1.00;;;;;;;22.98;42.74;100617.25;4995508;28;20052;-75
2022/05/25 12:04:03;;;;;;;2.90;0.98;;;;;;;24.04;40.11;100629.16;5010028;28;20030;-73